Lost Creek, West Virginia
Current Conditions -  °F | °C
As of 7:53 AM on Saturday 20 Dec 2014 (Local Time) from KCKB Reporting Station
Overcast Overcast  
Wind Chill: 28°   Ceiling: 2300
Heat Index: 28°   Visibility: 10mi
Dew Point: 21°   Wind: 0mph
Humidity: 75%   Direction: NA
Pressure: 30.25"   Gusts: NA
Location:  39.16°N, 80.35°W
Report Text: KCKB 201253Z 00000KT 10SM OVC023 M02/M06 A3025 RMK AO2 SLP252 T10221061
Loading
Personal Weather Stations






























Interactive Weather Map New forecast layout! Learn more

10-Day Weather Forecast

Advertisements
Track Severe Weather on mobile